sensor_id;sensor_type;location;lat;lon;timestamp;P1;durP1;ratioP1;P2;durP2;ratioP2
19436;SDS011;9854;50.968;4.168;2023-09-19T00:00:36;15.05;;;3.53;;
19436;SDS011;9854;50.968;4.168;2023-09-19T00:03:02;22.23;;;3.55;;
19436;SDS011;9854;50.968;4.168;2023-09-19T00:05:29;18.20;;;3.35;;
19436;SDS011;9854;50.968;4.168;2023-09-19T00:07:59;12.13;;;2.63;;
19436;SDS011;9854;50.968;4.168;2023-09-19T00:10:26;10.77;;;2.75;;
19436;SDS011;9854;50.968;4.168;2023-09-19T00:12:56;12.40;;;3.25;;
19436;SDS011;9854;50.968;4.168;2023-09-19T00:15:25;13.77;;;4.10;;
19436;SDS011;9854;50.968;4.168;2023-09-19T00:17:54;16.27;;;3.25;;
19436;SDS011;9854;50.968;4.168;2023-09-19T00:20:20;18.02;;;3.17;;
19436;SDS011;9854;50.968;4.168;2023-09-19T00:22:48;12.85;;;3.42;;
19436;SDS011;9854;50.968;4.168;2023-09-19T00:25:17;25.67;;;4.22;;
19436;SDS011;9854;50.968;4.168;2023-09-19T00:27:43;16.10;;;3.63;;
19436;SDS011;9854;50.968;4.168;2023-09-19T00:30:10;13.98;;;2.92;;
19436;SDS011;9854;50.968;4.168;2023-09-19T00:32:41;19.15;;;3.42;;
19436;SDS011;9854;50.968;4.168;2023-09-19T00:35:07;14.27;;;3.30;;
19436;SDS011;9854;50.968;4.168;2023-09-19T00:37:36;15.10;;;2.97;;
19436;SDS011;9854;50.968;4.168;2023-09-19T00:40:06;16.38;;;2.95;;
19436;SDS011;9854;50.968;4.168;2023-09-19T00:42:37;12.73;;;3.00;;
19436;SDS011;9854;50.968;4.168;2023-09-19T00:45:03;14.35;;;3.20;;
19436;SDS011;9854;50.968;4.168;2023-09-19T00:47:30;14.93;;;3.55;;
19436;SDS011;9854;50.968;4.168;2023-09-19T00:49:56;14.77;;;3.17;;
19436;SDS011;9854;50.968;4.168;2023-09-19T00:52:22;12.60;;;3.38;;
19436;SDS011;9854;50.968;4.168;2023-09-19T00:54:48;16.83;;;3.88;;
19436;SDS011;9854;50.968;4.168;2023-09-19T00:57:15;19.63;;;3.65;;
19436;SDS011;9854;50.968;4.168;2023-09-19T00:59:44;16.05;;;3.00;;
19436;SDS011;9854;50.968;4.168;2023-09-19T01:02:13;17.25;;;3.08;;
19436;SDS011;9854;50.968;4.168;2023-09-19T01:04:40;18.77;;;3.13;;
19436;SDS011;9854;50.968;4.168;2023-09-19T01:07:06;14.90;;;3.22;;
19436;SDS011;9854;50.968;4.168;2023-09-19T01:09:33;9.50;;;2.70;;
19436;SDS011;9854;50.968;4.168;2023-09-19T01:12:01;17.77;;;3.45;;
19436;SDS011;9854;50.968;4.168;2023-09-19T01:14:34;9.13;;;2.70;;
19436;SDS011;9854;50.968;4.168;2023-09-19T01:17:16;10.73;;;3.00;;
19436;SDS011;9854;50.968;4.168;2023-09-19T01:20:03;11.02;;;3.10;;
19436;SDS011;9854;50.968;4.168;2023-09-19T01:22:42;15.82;;;3.40;;
19436;SDS011;9854;50.968;4.168;2023-09-19T01:30:56;10.05;;;2.70;;
19436;SDS011;9854;50.968;4.168;2023-09-19T01:33:26;13.85;;;3.00;;
19436;SDS011;9854;50.968;4.168;2023-09-19T01:35:52;14.57;;;3.17;;
19436;SDS011;9854;50.968;4.168;2023-09-19T01:38:18;21.23;;;3.30;;
19436;SDS011;9854;50.968;4.168;2023-09-19T01:40:46;14.57;;;3.85;;
19436;SDS011;9854;50.968;4.168;2023-09-19T01:43:33;16.40;;;3.60;;
19436;SDS011;9854;50.968;4.168;2023-09-19T01:48:57;12.20;;;3.35;;
19436;SDS011;9854;50.968;4.168;2023-09-19T01:52:20;13.15;;;3.50;;
19436;SDS011;9854;50.968;4.168;2023-09-19T01:54:51;12.52;;;2.92;;
19436;SDS011;9854;50.968;4.168;2023-09-19T01:57:27;12.40;;;3.35;;
19436;SDS011;9854;50.968;4.168;2023-09-19T02:00:03;16.55;;;3.55;;
19436;SDS011;9854;50.968;4.168;2023-09-19T02:02:35;16.40;;;3.45;;
19436;SDS011;9854;50.968;4.168;2023-09-19T02:05:03;15.13;;;3.13;;
19436;SDS011;9854;50.968;4.168;2023-09-19T02:07:29;15.40;;;3.75;;
19436;SDS011;9854;50.968;4.168;2023-09-19T02:09:59;16.77;;;3.75;;
19436;SDS011;9854;50.968;4.168;2023-09-19T02:12:31;14.48;;;3.15;;
19436;SDS011;9854;50.968;4.168;2023-09-19T02:14:58;15.18;;;3.20;;
19436;SDS011;9854;50.968;4.168;2023-09-19T02:17:24;14.05;;;3.08;;
19436;SDS011;9854;50.968;4.168;2023-09-19T02:19:53;13.63;;;3.00;;
19436;SDS011;9854;50.968;4.168;2023-09-19T02:22:20;11.25;;;2.92;;
19436;SDS011;9854;50.968;4.168;2023-09-19T02:24:46;15.95;;;3.72;;
19436;SDS011;9854;50.968;4.168;2023-09-19T02:27:13;13.18;;;3.20;;
19436;SDS011;9854;50.968;4.168;2023-09-19T02:29:41;15.32;;;3.25;;
19436;SDS011;9854;50.968;4.168;2023-09-19T02:32:09;12.85;;;3.55;;
19436;SDS011;9854;50.968;4.168;2023-09-19T02:34:35;20.88;;;3.70;;
19436;SDS011;9854;50.968;4.168;2023-09-19T02:37:07;14.38;;;3.53;;
19436;SDS011;9854;50.968;4.168;2023-09-19T02:39:38;19.95;;;3.80;;
19436;SDS011;9854;50.968;4.168;2023-09-19T02:42:05;13.50;;;3.33;;
19436;SDS011;9854;50.968;4.168;2023-09-19T02:44:30;15.32;;;3.70;;
19436;SDS011;9854;50.968;4.168;2023-09-19T02:46:56;17.55;;;3.17;;
19436;SDS011;9854;50.968;4.168;2023-09-19T02:49:22;13.95;;;3.25;;
19436;SDS011;9854;50.968;4.168;2023-09-19T02:51:48;13.63;;;3.35;;
19436;SDS011;9854;50.968;4.168;2023-09-19T02:54:14;24.45;;;4.55;;
19436;SDS011;9854;50.968;4.168;2023-09-19T02:56:40;16.52;;;3.58;;
19436;SDS011;9854;50.968;4.168;2023-09-19T02:59:06;14.63;;;3.47;;
19436;SDS011;9854;50.968;4.168;2023-09-19T03:01:32;17.48;;;3.17;;
19436;SDS011;9854;50.968;4.168;2023-09-19T03:03:59;17.83;;;3.72;;
19436;SDS011;9854;50.968;4.168;2023-09-19T03:06:24;15.02;;;3.35;;
19436;SDS011;9854;50.968;4.168;2023-09-19T03:08:50;13.70;;;3.42;;
19436;SDS011;9854;50.968;4.168;2023-09-19T03:11:17;15.70;;;3.45;;
19436;SDS011;9854;50.968;4.168;2023-09-19T03:13:50;13.32;;;3.10;;
19436;SDS011;9854;50.968;4.168;2023-09-19T03:16:16;17.17;;;3.08;;
19436;SDS011;9854;50.968;4.168;2023-09-19T03:18:44;12.80;;;3.20;;
19436;SDS011;9854;50.968;4.168;2023-09-19T03:21:10;12.82;;;3.20;;
19436;SDS011;9854;50.968;4.168;2023-09-19T03:23:35;11.00;;;2.75;;
19436;SDS011;9854;50.968;4.168;2023-09-19T03:26:01;9.32;;;2.90;;
19436;SDS011;9854;50.968;4.168;2023-09-19T03:28:27;10.13;;;2.80;;
19436;SDS011;9854;50.968;4.168;2023-09-19T03:31:02;11.75;;;2.80;;
19436;SDS011;9854;50.968;4.168;2023-09-19T03:33:29;12.98;;;3.38;;
19436;SDS011;9854;50.968;4.168;2023-09-19T03:35:59;17.38;;;3.25;;
19436;SDS011;9854;50.968;4.168;2023-09-19T03:38:26;13.07;;;3.47;;
19436;SDS011;9854;50.968;4.168;2023-09-19T03:40:53;13.25;;;3.22;;
19436;SDS011;9854;50.968;4.168;2023-09-19T03:43:18;14.25;;;3.28;;
19436;SDS011;9854;50.968;4.168;2023-09-19T03:45:44;14.63;;;3.58;;
19436;SDS011;9854;50.968;4.168;2023-09-19T03:48:11;15.20;;;3.10;;
19436;SDS011;9854;50.968;4.168;2023-09-19T03:50:38;13.52;;;3.78;;
19436;SDS011;9854;50.968;4.168;2023-09-19T03:53:04;14.10;;;3.30;;
19436;SDS011;9854;50.968;4.168;2023-09-19T03:55:31;15.10;;;3.50;;
19436;SDS011;9854;50.968;4.168;2023-09-19T03:57:57;13.88;;;3.88;;
19436;SDS011;9854;50.968;4.168;2023-09-19T04:00:23;22.08;;;4.32;;
19436;SDS011;9854;50.968;4.168;2023-09-19T04:02:51;15.40;;;3.13;;
19436;SDS011;9854;50.968;4.168;2023-09-19T04:05:17;17.48;;;3.95;;
19436;SDS011;9854;50.968;4.168;2023-09-19T04:07:43;15.80;;;3.47;;
19436;SDS011;9854;50.968;4.168;2023-09-19T04:10:09;16.88;;;3.40;;
19436;SDS011;9854;50.968;4.168;2023-09-19T04:12:36;14.50;;;2.95;;
19436;SDS011;9854;50.968;4.168;2023-09-19T04:15:03;14.07;;;4.20;;
19436;SDS011;9854;50.968;4.168;2023-09-19T04:17:33;21.88;;;3.92;;
19436;SDS011;9854;50.968;4.168;2023-09-19T04:19:59;19.92;;;3.60;;
19436;SDS011;9854;50.968;4.168;2023-09-19T04:22:25;16.17;;;3.30;;
19436;SDS011;9854;50.968;4.168;2023-09-19T04:24:51;17.13;;;3.67;;
19436;SDS011;9854;50.968;4.168;2023-09-19T04:27:16;22.17;;;3.67;;
19436;SDS011;9854;50.968;4.168;2023-09-19T04:29:43;15.30;;;3.63;;
19436;SDS011;9854;50.968;4.168;2023-09-19T04:32:09;13.80;;;3.20;;
19436;SDS011;9854;50.968;4.168;2023-09-19T04:34:35;15.15;;;3.70;;
19436;SDS011;9854;50.968;4.168;2023-09-19T04:37:01;24.40;;;4.13;;
19436;SDS011;9854;50.968;4.168;2023-09-19T04:39:28;15.15;;;3.45;;
19436;SDS011;9854;50.968;4.168;2023-09-19T04:41:54;20.50;;;3.90;;
19436;SDS011;9854;50.968;4.168;2023-09-19T04:44:20;22.30;;;3.90;;
19436;SDS011;9854;50.968;4.168;2023-09-19T04:46:46;15.90;;;3.78;;
19436;SDS011;9854;50.968;4.168;2023-09-19T04:49:12;16.50;;;3.42;;
19436;SDS011;9854;50.968;4.168;2023-09-19T04:51:38;15.93;;;3.88;;
19436;SDS011;9854;50.968;4.168;2023-09-19T04:54:05;20.13;;;3.70;;
19436;SDS011;9854;50.968;4.168;2023-09-19T04:56:31;26.30;;;4.38;;
19436;SDS011;9854;50.968;4.168;2023-09-19T04:58:58;17.00;;;3.28;;
19436;SDS011;9854;50.968;4.168;2023-09-19T05:01:25;15.77;;;3.17;;
19436;SDS011;9854;50.968;4.168;2023-09-19T05:03:52;21.58;;;4.00;;
19436;SDS011;9854;50.968;4.168;2023-09-19T05:06:21;17.58;;;3.58;;
19436;SDS011;9854;50.968;4.168;2023-09-19T05:08:47;19.77;;;4.22;;
19436;SDS011;9854;50.968;4.168;2023-09-19T05:11:20;16.85;;;3.70;;
19436;SDS011;9854;50.968;4.168;2023-09-19T05:13:47;20.25;;;3.90;;
19436;SDS011;9854;50.968;4.168;2023-09-19T05:16:14;14.65;;;3.67;;
19436;SDS011;9854;50.968;4.168;2023-09-19T05:18:41;13.57;;;3.45;;
19436;SDS011;9854;50.968;4.168;2023-09-19T05:21:07;17.33;;;3.75;;
19436;SDS011;9854;50.968;4.168;2023-09-19T05:23:33;20.52;;;3.58;;
19436;SDS011;9854;50.968;4.168;2023-09-19T05:25:59;19.00;;;3.00;;
19436;SDS011;9854;50.968;4.168;2023-09-19T05:28:25;12.40;;;3.40;;
19436;SDS011;9854;50.968;4.168;2023-09-19T05:30:51;15.90;;;3.50;;
19436;SDS011;9854;50.968;4.168;2023-09-19T05:33:18;12.95;;;3.22;;
19436;SDS011;9854;50.968;4.168;2023-09-19T05:35:44;13.27;;;3.15;;
19436;SDS011;9854;50.968;4.168;2023-09-19T05:38:12;15.00;;;2.72;;
19436;SDS011;9854;50.968;4.168;2023-09-19T05:40:38;19.10;;;3.60;;
19436;SDS011;9854;50.968;4.168;2023-09-19T05:43:07;14.10;;;3.03;;
19436;SDS011;9854;50.968;4.168;2023-09-19T05:45:33;14.30;;;3.10;;
19436;SDS011;9854;50.968;4.168;2023-09-19T05:48:07;20.42;;;3.72;;
19436;SDS011;9854;50.968;4.168;2023-09-19T05:50:34;15.73;;;2.85;;
19436;SDS011;9854;50.968;4.168;2023-09-19T05:52:59;16.92;;;4.07;;
19436;SDS011;9854;50.968;4.168;2023-09-19T05:55:25;21.60;;;3.55;;
19436;SDS011;9854;50.968;4.168;2023-09-19T05:57:51;10.70;;;2.95;;
19436;SDS011;9854;50.968;4.168;2023-09-19T06:00:21;14.45;;;3.17;;
19436;SDS011;9854;50.968;4.168;2023-09-19T06:02:51;16.98;;;3.78;;
19436;SDS011;9854;50.968;4.168;2023-09-19T06:05:17;14.45;;;3.00;;
19436;SDS011;9854;50.968;4.168;2023-09-19T06:07:43;19.52;;;3.90;;
19436;SDS011;9854;50.968;4.168;2023-09-19T06:10:09;15.15;;;3.65;;
19436;SDS011;9854;50.968;4.168;2023-09-19T06:12:41;11.73;;;3.15;;
19436;SDS011;9854;50.968;4.168;2023-09-19T06:15:11;18.27;;;3.20;;
19436;SDS011;9854;50.968;4.168;2023-09-19T06:17:47;16.20;;;3.30;;
19436;SDS011;9854;50.968;4.168;2023-09-19T06:20:13;14.82;;;4.05;;
19436;SDS011;9854;50.968;4.168;2023-09-19T06:22:40;15.77;;;3.50;;
19436;SDS011;9854;50.968;4.168;2023-09-19T06:25:07;9.77;;;2.67;;
19436;SDS011;9854;50.968;4.168;2023-09-19T06:27:39;13.73;;;3.45;;
19436;SDS011;9854;50.968;4.168;2023-09-19T06:30:09;14.52;;;3.22;;
19436;SDS011;9854;50.968;4.168;2023-09-19T06:32:36;17.77;;;3.75;;
19436;SDS011;9854;50.968;4.168;2023-09-19T06:35:02;15.45;;;3.42;;
19436;SDS011;9854;50.968;4.168;2023-09-19T06:37:32;14.60;;;2.63;;
19436;SDS011;9854;50.968;4.168;2023-09-19T06:39:59;13.85;;;3.47;;
19436;SDS011;9854;50.968;4.168;2023-09-19T06:42:25;14.88;;;3.58;;
19436;SDS011;9854;50.968;4.168;2023-09-19T06:44:53;16.63;;;3.67;;
19436;SDS011;9854;50.968;4.168;2023-09-19T06:47:18;10.32;;;2.22;;
19436;SDS011;9854;50.968;4.168;2023-09-19T06:49:45;13.95;;;2.95;;
19436;SDS011;9854;50.968;4.168;2023-09-19T06:52:10;16.25;;;3.30;;
19436;SDS011;9854;50.968;4.168;2023-09-19T06:54:36;12.63;;;3.30;;
19436;SDS011;9854;50.968;4.168;2023-09-19T06:57:02;15.80;;;3.30;;
19436;SDS011;9854;50.968;4.168;2023-09-19T06:59:28;14.20;;;2.67;;
19436;SDS011;9854;50.968;4.168;2023-09-19T07:01:54;10.98;;;3.25;;
19436;SDS011;9854;50.968;4.168;2023-09-19T07:04:20;19.45;;;3.28;;
19436;SDS011;9854;50.968;4.168;2023-09-19T07:06:49;14.70;;;3.05;;
19436;SDS011;9854;50.968;4.168;2023-09-19T07:09:15;17.52;;;3.10;;
19436;SDS011;9854;50.968;4.168;2023-09-19T07:11:41;18.17;;;3.30;;
19436;SDS011;9854;50.968;4.168;2023-09-19T07:14:07;17.77;;;3.03;;
19436;SDS011;9854;50.968;4.168;2023-09-19T07:16:36;13.77;;;3.35;;
19436;SDS011;9854;50.968;4.168;2023-09-19T07:19:03;12.43;;;3.25;;
19436;SDS011;9854;50.968;4.168;2023-09-19T07:21:29;11.63;;;3.00;;
19436;SDS011;9854;50.968;4.168;2023-09-19T07:23:55;18.77;;;3.13;;
19436;SDS011;9854;50.968;4.168;2023-09-19T07:26:20;15.75;;;3.17;;
19436;SDS011;9854;50.968;4.168;2023-09-19T07:28:46;18.00;;;3.15;;
19436;SDS011;9854;50.968;4.168;2023-09-19T07:31:12;18.85;;;2.95;;
19436;SDS011;9854;50.968;4.168;2023-09-19T07:33:39;14.77;;;3.58;;
19436;SDS011;9854;50.968;4.168;2023-09-19T07:36:05;15.45;;;2.88;;
19436;SDS011;9854;50.968;4.168;2023-09-19T07:38:34;14.43;;;3.42;;
19436;SDS011;9854;50.968;4.168;2023-09-19T07:41:00;11.32;;;3.10;;
19436;SDS011;9854;50.968;4.168;2023-09-19T07:43:27;12.27;;;2.63;;
19436;SDS011;9854;50.968;4.168;2023-09-19T07:45:53;13.75;;;2.92;;
19436;SDS011;9854;50.968;4.168;2023-09-19T07:48:18;14.65;;;3.28;;
19436;SDS011;9854;50.968;4.168;2023-09-19T07:50:44;12.13;;;2.97;;
19436;SDS011;9854;50.968;4.168;2023-09-19T07:53:10;19.48;;;3.40;;
19436;SDS011;9854;50.968;4.168;2023-09-19T07:55:38;14.77;;;3.40;;
19436;SDS011;9854;50.968;4.168;2023-09-19T07:58:06;13.00;;;3.45;;
19436;SDS011;9854;50.968;4.168;2023-09-19T08:00:32;17.85;;;3.53;;
19436;SDS011;9854;50.968;4.168;2023-09-19T08:02:59;9.95;;;2.55;;
19436;SDS011;9854;50.968;4.168;2023-09-19T08:05:26;15.23;;;3.42;;
19436;SDS011;9854;50.968;4.168;2023-09-19T08:07:52;15.63;;;3.65;;
19436;SDS011;9854;50.968;4.168;2023-09-19T08:10:19;20.13;;;3.60;;
19436;SDS011;9854;50.968;4.168;2023-09-19T08:12:46;17.58;;;3.42;;
19436;SDS011;9854;50.968;4.168;2023-09-19T08:15:13;16.13;;;3.67;;
19436;SDS011;9854;50.968;4.168;2023-09-19T08:17:46;11.70;;;3.05;;
19436;SDS011;9854;50.968;4.168;2023-09-19T08:20:12;13.48;;;3.13;;
19436;SDS011;9854;50.968;4.168;2023-09-19T08:22:48;15.00;;;3.00;;
19436;SDS011;9854;50.968;4.168;2023-09-19T08:25:17;14.40;;;3.15;;
19436;SDS011;9854;50.968;4.168;2023-09-19T08:27:43;18.73;;;3.42;;
19436;SDS011;9854;50.968;4.168;2023-09-19T08:30:13;18.50;;;3.72;;
19436;SDS011;9854;50.968;4.168;2023-09-19T08:32:43;12.35;;;3.28;;
19436;SDS011;9854;50.968;4.168;2023-09-19T08:35:11;12.07;;;3.15;;
19436;SDS011;9854;50.968;4.168;2023-09-19T08:37:37;18.10;;;3.50;;
19436;SDS011;9854;50.968;4.168;2023-09-19T08:40:03;12.77;;;2.65;;
19436;SDS011;9854;50.968;4.168;2023-09-19T08:42:31;16.88;;;3.40;;
19436;SDS011;9854;50.968;4.168;2023-09-19T08:44:57;13.00;;;3.13;;
19436;SDS011;9854;50.968;4.168;2023-09-19T08:47:33;10.57;;;3.08;;
19436;SDS011;9854;50.968;4.168;2023-09-19T08:50:13;10.88;;;2.35;;
19436;SDS011;9854;50.968;4.168;2023-09-19T08:52:44;11.80;;;2.38;;
19436;SDS011;9854;50.968;4.168;2023-09-19T08:55:12;12.18;;;2.30;;
19436;SDS011;9854;50.968;4.168;2023-09-19T08:57:45;16.23;;;3.00;;
19436;SDS011;9854;50.968;4.168;2023-09-19T09:00:14;14.00;;;3.17;;
19436;SDS011;9854;50.968;4.168;2023-09-19T09:02:46;17.30;;;3.75;;
19436;SDS011;9854;50.968;4.168;2023-09-19T09:05:13;13.75;;;3.40;;
19436;SDS011;9854;50.968;4.168;2023-09-19T09:07:41;10.05;;;3.03;;
19436;SDS011;9854;50.968;4.168;2023-09-19T09:10:08;11.23;;;2.50;;
19436;SDS011;9854;50.968;4.168;2023-09-19T09:12:35;14.15;;;2.53;;
19436;SDS011;9854;50.968;4.168;2023-09-19T09:15:06;13.88;;;2.20;;
19436;SDS011;9854;50.968;4.168;2023-09-19T09:17:33;13.90;;;2.83;;
19436;SDS011;9854;50.968;4.168;2023-09-19T09:19:59;16.38;;;2.85;;
19436;SDS011;9854;50.968;4.168;2023-09-19T09:22:25;9.35;;;2.13;;
19436;SDS011;9854;50.968;4.168;2023-09-19T09:24:54;14.77;;;2.70;;
19436;SDS011;9854;50.968;4.168;2023-09-19T09:27:26;10.23;;;2.88;;
19436;SDS011;9854;50.968;4.168;2023-09-19T09:29:52;7.15;;;2.00;;
19436;SDS011;9854;50.968;4.168;2023-09-19T09:32:20;10.82;;;2.45;;
19436;SDS011;9854;50.968;4.168;2023-09-19T09:35:01;10.65;;;2.10;;
19436;SDS011;9854;50.968;4.168;2023-09-19T09:37:34;8.57;;;2.20;;
19436;SDS011;9854;50.968;4.168;2023-09-19T09:40:03;13.93;;;2.72;;
19436;SDS011;9854;50.968;4.168;2023-09-19T09:42:41;13.25;;;2.53;;
19436;SDS011;9854;50.968;4.168;2023-09-19T09:45:15;10.45;;;2.35;;
19436;SDS011;9854;50.968;4.168;2023-09-19T09:47:49;12.68;;;2.53;;
19436;SDS011;9854;50.968;4.168;2023-09-19T09:52:54;5.97;;;1.92;;
19436;SDS011;9854;50.968;4.168;2023-09-19T09:55:32;11.50;;;2.42;;
19436;SDS011;9854;50.968;4.168;2023-09-19T09:58:34;7.70;;;2.08;;
19436;SDS011;9854;50.968;4.168;2023-09-19T10:01:01;10.18;;;2.38;;
19436;SDS011;9854;50.968;4.168;2023-09-19T10:03:35;9.10;;;2.28;;
19436;SDS011;9854;50.968;4.168;2023-09-19T10:06:08;10.02;;;1.90;;
19436;SDS011;9854;50.968;4.168;2023-09-19T10:08:58;11.18;;;2.40;;
19436;SDS011;9854;50.968;4.168;2023-09-19T10:11:31;11.05;;;2.45;;
19436;SDS011;9854;50.968;4.168;2023-09-19T10:13:58;6.50;;;2.20;;
19436;SDS011;9854;50.968;4.168;2023-09-19T10:16:31;9.10;;;1.83;;
19436;SDS011;9854;50.968;4.168;2023-09-19T10:18:59;10.55;;;2.05;;
19436;SDS011;9854;50.968;4.168;2023-09-19T10:21:31;8.57;;;2.33;;
19436;SDS011;9854;50.968;4.168;2023-09-19T10:23:58;7.07;;;1.75;;
19436;SDS011;9854;50.968;4.168;2023-09-19T10:26:26;6.45;;;2.05;;
19436;SDS011;9854;50.968;4.168;2023-09-19T10:28:56;6.88;;;1.52;;
19436;SDS011;9854;50.968;4.168;2023-09-19T10:31:22;8.90;;;1.60;;
19436;SDS011;9854;50.968;4.168;2023-09-19T10:33:50;7.05;;;1.75;;
19436;SDS011;9854;50.968;4.168;2023-09-19T10:36:18;8.70;;;1.90;;
19436;SDS011;9854;50.968;4.168;2023-09-19T10:38:45;7.65;;;1.80;;
19436;SDS011;9854;50.968;4.168;2023-09-19T10:41:14;8.23;;;1.92;;
19436;SDS011;9854;50.968;4.168;2023-09-19T10:43:42;11.00;;;1.88;;
19436;SDS011;9854;50.968;4.168;2023-09-19T10:46:11;7.32;;;1.90;;
19436;SDS011;9854;50.968;4.168;2023-09-19T10:48:38;8.23;;;1.45;;
19436;SDS011;9854;50.968;4.168;2023-09-19T10:51:09;8.50;;;1.98;;
19436;SDS011;9854;50.968;4.168;2023-09-19T10:56:32;7.38;;;1.33;;
19436;SDS011;9854;50.968;4.168;2023-09-19T10:59:08;5.88;;;1.30;;
19436;SDS011;9854;50.968;4.168;2023-09-19T11:01:54;6.05;;;1.20;;
19436;SDS011;9854;50.968;4.168;2023-09-19T11:04:28;7.97;;;1.40;;
19436;SDS011;9854;50.968;4.168;2023-09-19T11:07:08;4.40;;;1.33;;
19436;SDS011;9854;50.968;4.168;2023-09-19T11:09:48;4.95;;;1.20;;
19436;SDS011;9854;50.968;4.168;2023-09-19T11:14:56;4.60;;;1.20;;
19436;SDS011;9854;50.968;4.168;2023-09-19T11:28:36;5.60;;;1.35;;
19436;SDS011;9854;50.968;4.168;2023-09-19T11:30:44;5.28;;;1.15;;
19436;SDS011;9854;50.968;4.168;2023-09-19T11:36:06;2.47;;;1.08;;
19436;SDS011;9854;50.968;4.168;2023-09-19T11:43:52;12.07;;;1.20;;
19436;SDS011;9854;50.968;4.168;2023-09-19T11:46:26;2.88;;;1.02;;
19436;SDS011;9854;50.968;4.168;2023-09-19T11:48:53;6.80;;;1.15;;
19436;SDS011;9854;50.968;4.168;2023-09-19T11:51:20;8.32;;;1.17;;
19436;SDS011;9854;50.968;4.168;2023-09-19T11:53:49;6.05;;;1.20;;
19436;SDS011;9854;50.968;4.168;2023-09-19T11:56:19;3.17;;;1.10;;
19436;SDS011;9854;50.968;4.168;2023-09-19T11:58:51;9.07;;;1.13;;
19436;SDS011;9854;50.968;4.168;2023-09-19T12:01:37;8.40;;;1.20;;
19436;SDS011;9854;50.968;4.168;2023-09-19T12:04:10;2.97;;;1.25;;
19436;SDS011;9854;50.968;4.168;2023-09-19T12:06:37;7.03;;;1.17;;
19436;SDS011;9854;50.968;4.168;2023-09-19T12:09:12;4.63;;;1.33;;
19436;SDS011;9854;50.968;4.168;2023-09-19T12:11:42;8.45;;;1.20;;
19436;SDS011;9854;50.968;4.168;2023-09-19T12:14:10;6.50;;;1.45;;
19436;SDS011;9854;50.968;4.168;2023-09-19T12:16:36;6.20;;;1.25;;
19436;SDS011;9854;50.968;4.168;2023-09-19T12:19:18;6.30;;;1.40;;
19436;SDS011;9854;50.968;4.168;2023-09-19T12:21:55;5.18;;;1.02;;
19436;SDS011;9854;50.968;4.168;2023-09-19T12:24:23;6.43;;;1.35;;
19436;SDS011;9854;50.968;4.168;2023-09-19T12:26:51;3.00;;;0.93;;
19436;SDS011;9854;50.968;4.168;2023-09-19T12:31:54;5.38;;;1.10;;
19436;SDS011;9854;50.968;4.168;2023-09-19T12:34:26;5.40;;;1.05;;
19436;SDS011;9854;50.968;4.168;2023-09-19T12:37:05;5.97;;;1.13;;
19436;SDS011;9854;50.968;4.168;2023-09-19T12:39:43;8.32;;;1.65;;
19436;SDS011;9854;50.968;4.168;2023-09-19T12:42:21;3.15;;;1.10;;
19436;SDS011;9854;50.968;4.168;2023-09-19T12:44:49;7.80;;;1.33;;
19436;SDS011;9854;50.968;4.168;2023-09-19T12:47:21;3.65;;;1.13;;
19436;SDS011;9854;50.968;4.168;2023-09-19T12:52:50;5.75;;;1.55;;
19436;SDS011;9854;50.968;4.168;2023-09-19T12:55:50;6.72;;;1.20;;
19436;SDS011;9854;50.968;4.168;2023-09-19T12:58:11;6.88;;;1.23;;
19436;SDS011;9854;50.968;4.168;2023-09-19T13:03:14;5.85;;;1.70;;
19436;SDS011;9854;50.968;4.168;2023-09-19T13:05:48;7.32;;;1.38;;
19436;SDS011;9854;50.968;4.168;2023-09-19T13:08:21;4.30;;;1.67;;
19436;SDS011;9854;50.968;4.168;2023-09-19T13:13:36;5.00;;;1.30;;
19436;SDS011;9854;50.968;4.168;2023-09-19T13:16:02;9.18;;;1.88;;
19436;SDS011;9854;50.968;4.168;2023-09-19T13:18:40;6.80;;;2.45;;
19436;SDS011;9854;50.968;4.168;2023-09-19T13:21:09;7.93;;;2.00;;
19436;SDS011;9854;50.968;4.168;2023-09-19T13:23:40;10.20;;;3.78;;
19436;SDS011;9854;50.968;4.168;2023-09-19T13:26:07;6.25;;;4.47;;
19436;SDS011;9854;50.968;4.168;2023-09-19T13:28:37;11.05;;;4.20;;
19436;SDS011;9854;50.968;4.168;2023-09-19T13:31:03;6.15;;;1.83;;
19436;SDS011;9854;50.968;4.168;2023-09-19T13:33:29;4.13;;;1.33;;
19436;SDS011;9854;50.968;4.168;2023-09-19T13:35:55;3.60;;;1.35;;
19436;SDS011;9854;50.968;4.168;2023-09-19T13:38:22;5.47;;;1.80;;
19436;SDS011;9854;50.968;4.168;2023-09-19T13:40:47;5.35;;;1.55;;
19436;SDS011;9854;50.968;4.168;2023-09-19T13:43:14;6.60;;;1.30;;
19436;SDS011;9854;50.968;4.168;2023-09-19T13:45:40;5.90;;;1.30;;
19436;SDS011;9854;50.968;4.168;2023-09-19T13:48:09;13.05;;;2.65;;
19436;SDS011;9854;50.968;4.168;2023-09-19T13:50:36;7.70;;;3.17;;
19436;SDS011;9854;50.968;4.168;2023-09-19T13:53:07;6.15;;;2.78;;
19436;SDS011;9854;50.968;4.168;2023-09-19T13:55:35;2.95;;;1.40;;
19436;SDS011;9854;50.968;4.168;2023-09-19T13:58:02;6.50;;;1.98;;
19436;SDS011;9854;50.968;4.168;2023-09-19T14:00:31;9.90;;;2.33;;
19436;SDS011;9854;50.968;4.168;2023-09-19T14:03:00;6.63;;;1.48;;
19436;SDS011;9854;50.968;4.168;2023-09-19T14:05:26;4.80;;;1.42;;
19436;SDS011;9854;50.968;4.168;2023-09-19T14:07:53;3.80;;;1.23;;
19436;SDS011;9854;50.968;4.168;2023-09-19T14:10:24;4.88;;;1.85;;
19436;SDS011;9854;50.968;4.168;2023-09-19T14:12:52;4.68;;;1.77;;
19436;SDS011;9854;50.968;4.168;2023-09-19T14:15:17;4.70;;;1.67;;
19436;SDS011;9854;50.968;4.168;2023-09-19T14:17:43;5.03;;;1.50;;
19436;SDS011;9854;50.968;4.168;2023-09-19T14:20:11;6.97;;;1.50;;
19436;SDS011;9854;50.968;4.168;2023-09-19T14:22:37;7.97;;;1.70;;
19436;SDS011;9854;50.968;4.168;2023-09-19T14:25:04;4.63;;;1.65;;
19436;SDS011;9854;50.968;4.168;2023-09-19T14:27:30;4.60;;;1.25;;
19436;SDS011;9854;50.968;4.168;2023-09-19T14:29:56;10.55;;;1.60;;
19436;SDS011;9854;50.968;4.168;2023-09-19T14:32:22;9.18;;;1.85;;
19436;SDS011;9854;50.968;4.168;2023-09-19T14:34:48;3.83;;;2.20;;
19436;SDS011;9854;50.968;4.168;2023-09-19T14:37:14;6.57;;;1.70;;
19436;SDS011;9854;50.968;4.168;2023-09-19T14:39:43;11.38;;;1.60;;
19436;SDS011;9854;50.968;4.168;2023-09-19T14:42:11;7.57;;;2.10;;
19436;SDS011;9854;50.968;4.168;2023-09-19T14:44:39;8.70;;;1.98;;
19436;SDS011;9854;50.968;4.168;2023-09-19T14:47:05;7.32;;;1.50;;
19436;SDS011;9854;50.968;4.168;2023-09-19T14:49:35;6.30;;;1.75;;
19436;SDS011;9854;50.968;4.168;2023-09-19T14:52:05;7.97;;;2.03;;
19436;SDS011;9854;50.968;4.168;2023-09-19T14:54:34;7.70;;;2.25;;
19436;SDS011;9854;50.968;4.168;2023-09-19T14:57:00;11.45;;;2.25;;
19436;SDS011;9854;50.968;4.168;2023-09-19T14:59:33;9.70;;;2.40;;
19436;SDS011;9854;50.968;4.168;2023-09-19T15:02:05;3.42;;;1.38;;
19436;SDS011;9854;50.968;4.168;2023-09-19T15:04:31;8.80;;;2.13;;
19436;SDS011;9854;50.968;4.168;2023-09-19T15:06:56;8.48;;;2.20;;
19436;SDS011;9854;50.968;4.168;2023-09-19T15:09:23;7.93;;;1.98;;
19436;SDS011;9854;50.968;4.168;2023-09-19T15:11:54;4.22;;;1.73;;
19436;SDS011;9854;50.968;4.168;2023-09-19T15:14:23;7.75;;;2.17;;
19436;SDS011;9854;50.968;4.168;2023-09-19T15:16:50;6.18;;;2.10;;
19436;SDS011;9854;50.968;4.168;2023-09-19T15:19:16;7.05;;;1.85;;
19436;SDS011;9854;50.968;4.168;2023-09-19T15:21:42;10.57;;;2.00;;
19436;SDS011;9854;50.968;4.168;2023-09-19T15:24:09;8.90;;;1.88;;
19436;SDS011;9854;50.968;4.168;2023-09-19T15:26:35;11.88;;;1.80;;
19436;SDS011;9854;50.968;4.168;2023-09-19T15:29:05;7.47;;;1.98;;
19436;SDS011;9854;50.968;4.168;2023-09-19T15:31:31;12.10;;;2.30;;
19436;SDS011;9854;50.968;4.168;2023-09-19T15:33:57;15.38;;;2.55;;
19436;SDS011;9854;50.968;4.168;2023-09-19T15:36:23;9.02;;;1.83;;
19436;SDS011;9854;50.968;4.168;2023-09-19T15:41:28;6.97;;;1.90;;
19436;SDS011;9854;50.968;4.168;2023-09-19T15:43:59;8.40;;;2.00;;
19436;SDS011;9854;50.968;4.168;2023-09-19T15:46:27;12.32;;;2.08;;
19436;SDS011;9854;50.968;4.168;2023-09-19T15:48:54;8.98;;;2.28;;
19436;SDS011;9854;50.968;4.168;2023-09-19T15:51:20;8.90;;;2.38;;